Time;durP1;ratioP1;P1;durP2;ratioP2;P2;SDS_P1;SDS_P2;PMS_P1;PMS_P2;Temp;Humidity;BMP_temperature;BMP_pressure;BME280_temperature;BME280_humidity;BME280_pressure;Samples;Min_cycle;Max_cycle;Signal;HPM_P1;HPM_P2
2023/10/03 00:00:22;;;;;;;1.93;1.03;;;;;;;-143.84;46.26;45096.66;5089397;28;21233;-60
2023/10/03 00:02:54;;;;;;;0.80;0.40;;;;;;;-143.84;46.32;45070.00;5088870;28;20449;-60
2023/10/03 00:05:22;;;;;;;1.00;0.60;;;;;;;-143.84;46.46;45075.72;5088897;28;20523;-60
2023/10/03 00:07:50;;;;;;;0.80;0.40;;;;;;;-143.84;46.35;45062.41;5089045;28;20432;-60
2023/10/03 00:10:18;;;;;;;0.80;0.40;;;;;;;-143.84;46.44;45083.34;5088971;28;20443;-60
2023/10/03 00:12:48;;;;;;;0.80;0.40;;;;;;;-143.84;46.52;45083.34;5089064;28;20803;-60
2023/10/03 00:15:16;;;;;;;1.03;0.93;;;;;;;-143.84;46.63;45052.88;5088918;28;20447;-60
2023/10/03 00:17:44;;;;;;;0.80;0.40;;;;;;;-143.84;46.49;45049.06;5088889;28;21050;-60
2023/10/03 00:20:13;;;;;;;0.90;0.57;;;;;;;-143.84;46.50;45068.13;5089040;28;20517;-60
2023/10/03 00:22:40;;;;;;;1.03;0.93;;;;;;;-143.84;46.50;45094.78;5088757;28;20454;-60
2023/10/03 00:25:12;;;;;;;2.80;0.77;;;;;;;-143.84;46.46;45087.16;5088687;28;20475;-60
2023/10/03 00:27:40;;;;;;;1.30;0.80;;;;;;;-143.84;46.58;45068.13;5088829;28;20527;-60
2023/10/03 00:30:10;;;;;;;0.80;0.40;;;;;;;-143.84;46.71;45075.72;5088554;28;20459;-60
2023/10/03 00:32:40;;;;;;;1.00;0.63;;;;;;;-143.84;46.63;45092.88;5088406;28;20974;-60
2023/10/03 00:35:08;;;;;;;0.80;0.43;;;;;;;-143.84;46.92;45089.06;5089003;28;20570;-60
2023/10/03 00:37:35;;;;;;;2.30;1.07;;;;;;;-143.84;46.92;45073.81;5088440;28;20480;-59
2023/10/03 00:40:16;;;;;;;0.90;0.70;;;;;;;-143.84;46.92;45077.63;5088580;28;20531;-60
2023/10/03 00:42:47;;;;;;;0.90;0.67;;;;;;;-143.84;46.95;45071.91;5088536;28;20439;-59
2023/10/03 00:45:19;;;;;;;0.80;0.40;;;;;;;-143.84;46.78;45071.91;5088082;28;20512;-60
2023/10/03 00:47:47;;;;;;;3.17;1.27;;;;;;;-143.84;46.84;45064.31;5089396;28;20458;-60
2023/10/03 00:50:16;;;;;;;0.80;0.50;;;;;;;-143.84;46.89;45064.31;5093063;28;21078;-60
2023/10/03 00:52:46;;;;;;;1.27;0.70;;;;;;;-143.84;47.02;45087.16;5092340;28;20450;-60
2023/10/03 00:55:14;;;;;;;2.40;0.60;;;;;;;-143.84;46.88;45108.09;5092228;28;20432;-60
2023/10/03 00:57:43;;;;;;;0.90;0.70;;;;;;;-143.84;46.97;45081.44;5092528;28;21091;-60
2023/10/03 01:00:16;;;;;;;0.90;0.77;;;;;;;-143.84;46.85;45071.91;5092463;28;20440;-60
2023/10/03 01:02:48;;;;;;;1.10;0.87;;;;;;;-143.84;47.00;45092.88;5092366;28;20451;-60
2023/10/03 01:05:16;;;;;;;0.90;0.70;;;;;;;-143.84;46.80;45081.44;5092429;28;20444;-60
2023/10/03 01:07:44;;;;;;;0.90;0.50;;;;;;;-143.84;46.87;45070.00;5092360;28;20450;-60
2023/10/03 01:10:13;;;;;;;0.80;0.50;;;;;;;-143.84;46.95;45047.16;5092232;28;20566;-60
2023/10/03 01:12:41;;;;;;;1.43;0.60;;;;;;;-143.84;47.04;45081.44;5092296;28;20436;-60
2023/10/03 01:15:16;;;;;;;0.80;0.50;;;;;;;-143.84;46.91;45077.63;5092339;28;20563;-60
2023/10/03 01:17:48;;;;;;;1.00;0.60;;;;;;;-143.84;46.89;45075.72;5092147;28;20522;-60
2023/10/03 01:20:23;;;;;;;0.80;0.50;;;;;;;-143.84;47.09;45077.63;5091979;28;20448;-60
2023/10/03 01:22:54;;;;;;;1.27;0.70;;;;;;;-143.84;47.20;45039.53;5092643;28;21302;-60
2023/10/03 01:25:25;;;;;;;0.80;0.40;;;;;;;-143.84;47.36;45062.41;5092438;28;20551;-60
2023/10/03 01:27:53;;;;;;;0.90;0.60;;;;;;;-143.84;47.53;45075.72;5091993;28;20440;-60
2023/10/03 01:30:20;;;;;;;0.80;0.40;;;;;;;-143.84;47.38;45068.13;5091804;28;20452;-60
2023/10/03 01:32:52;;;;;;;0.80;0.50;;;;;;;-143.84;47.76;45090.97;5091786;28;20443;-60
2023/10/03 01:35:22;;;;;;;0.80;0.50;;;;;;;-143.84;47.88;45110.00;5092085;28;20813;-60
2023/10/03 01:37:50;;;;;;;0.90;0.50;;;;;;;-143.84;47.97;45087.16;5091707;28;21007;-60
2023/10/03 01:40:17;;;;;;;0.80;0.40;;;;;;;-143.84;48.36;45085.25;5091793;28;20446;-60
2023/10/03 01:42:47;;;;;;;0.80;0.50;;;;;;;-143.84;48.33;45083.34;5091592;28;20490;-60
2023/10/03 01:45:17;;;;;;;0.90;0.60;;;;;;;-143.84;48.48;45079.53;5092290;28;20520;-60
2023/10/03 01:47:48;;;;;;;1.00;0.50;;;;;;;-143.84;48.71;45079.53;5091533;28;20503;-60
2023/10/03 01:50:17;;;;;;;1.07;0.70;;;;;;;-143.84;49.32;45071.91;5091656;28;20450;-60
2023/10/03 01:52:46;;;;;;;0.80;0.50;;;;;;;-143.84;49.56;45083.34;5091588;28;20453;-60
2023/10/03 01:55:14;;;;;;;0.80;0.50;;;;;;;-143.84;49.70;45085.25;5091394;28;20805;-60
2023/10/03 01:57:41;;;;;;;0.90;0.50;;;;;;;-143.84;49.95;45052.88;5091383;28;20486;-60
2023/10/03 02:00:21;;;;;;;2.17;1.63;;;;;;;-143.84;50.18;45094.78;5090748;28;20458;-60
2023/10/03 02:02:50;;;;;;;0.80;0.50;;;;;;;-143.84;50.41;45087.16;5091237;28;20530;-60
2023/10/03 02:05:21;;;;;;;1.63;0.70;;;;;;;-143.84;50.43;45068.13;5091302;28;20443;-60
2023/10/03 02:07:49;;;;;;;0.80;0.40;;;;;;;-143.84;50.62;45090.97;5091104;28;20451;-60
2023/10/03 02:10:17;;;;;;;0.87;0.57;;;;;;;-143.84;50.71;45068.13;5091466;28;20456;-60
2023/10/03 02:12:48;;;;;;;0.80;0.50;;;;;;;-143.84;50.69;45054.78;5090954;28;20441;-60
2023/10/03 02:15:21;;;;;;;0.80;0.50;;;;;;;-143.84;50.85;45089.06;5091129;28;20477;-60
2023/10/03 02:17:50;;;;;;;2.30;1.07;;;;;;;-143.84;50.81;45077.63;5091054;28;20487;-60
2023/10/03 02:20:20;;;;;;;0.90;0.50;;;;;;;-143.84;50.99;45077.63;5090578;28;20510;-60
2023/10/03 02:22:55;;;;;;;0.90;0.70;;;;;;;-143.84;51.08;45085.25;5090415;28;20440;-60
2023/10/03 02:25:23;;;;;;;0.80;0.57;;;;;;;-143.84;51.16;45077.63;5090468;28;21350;-60
2023/10/03 02:27:53;;;;;;;0.80;0.50;;;;;;;-143.84;50.94;45039.53;5090979;28;20442;-60
2023/10/03 02:30:23;;;;;;;1.00;0.50;;;;;;;-143.84;50.93;45041.44;5090812;28;20452;-60
2023/10/03 02:32:53;;;;;;;0.80;0.43;;;;;;;-143.84;51.04;45079.53;5090946;28;20512;-60
2023/10/03 02:35:24;;;;;;;0.87;0.53;;;;;;;-143.84;51.02;45108.09;5090716;28;20441;-60
2023/10/03 02:37:52;;;;;;;0.80;0.50;;;;;;;-143.84;50.91;45075.72;5090871;28;20854;-60
2023/10/03 02:40:22;;;;;;;0.80;0.40;;;;;;;-143.84;51.04;45100.47;5090676;28;20525;-60
2023/10/03 02:42:53;;;;;;;1.00;0.80;;;;;;;-143.84;50.99;45087.16;5090599;28;20458;-60
2023/10/03 02:45:23;;;;;;;1.00;0.70;;;;;;;-143.84;51.07;45075.72;5090425;28;20441;-60
2023/10/03 02:47:53;;;;;;;0.80;0.60;;;;;;;-143.84;51.24;45085.25;5090512;28;20476;-60
2023/10/03 02:50:21;;;;;;;0.80;0.60;;;;;;;-143.84;50.90;45075.72;5090548;28;21162;-60
2023/10/03 02:52:48;;;;;;;1.30;0.83;;;;;;;-143.84;51.23;45102.38;5090362;28;20447;-60
2023/10/03 02:55:17;;;;;;;0.90;0.70;;;;;;;-143.84;51.28;45081.44;5090032;28;20465;-60
2023/10/03 02:57:44;;;;;;;0.80;0.50;;;;;;;-143.84;51.36;45087.16;5089752;28;20483;-60
2023/10/03 03:00:14;;;;;;;3.33;1.53;;;;;;;-143.84;51.42;45090.97;5089938;28;20435;-60
2023/10/03 03:02:46;;;;;;;0.80;0.40;;;;;;;-143.84;51.66;45098.56;5089895;28;20439;-62
2023/10/03 03:05:16;;;;;;;0.90;0.70;;;;;;;-143.84;51.61;45060.50;5089825;28;20999;-60
2023/10/03 03:07:45;;;;;;;1.27;0.90;;;;;;;-143.84;51.69;45108.09;5089738;28;20891;-60
2023/10/03 03:10:16;;;;;;;0.80;0.50;;;;;;;-143.84;51.62;45075.72;5089746;28;20932;-60
2023/10/03 03:12:43;;;;;;;1.53;0.53;;;;;;;-143.84;51.74;45098.56;5088725;28;20955;-60
2023/10/03 03:15:12;;;;;;;0.80;0.53;;;;;;;-143.84;51.60;45083.34;5089584;28;20517;-60
2023/10/03 03:17:41;;;;;;;0.80;0.50;;;;;;;-143.84;51.58;45102.38;5089688;28;20566;-60
2023/10/03 03:20:20;;;;;;;1.63;1.13;;;;;;;-143.84;51.80;45071.91;5090043;28;20441;-60
2023/10/03 03:22:49;;;;;;;0.97;0.87;;;;;;;-143.84;51.72;45094.78;5089803;28;20506;-60
2023/10/03 03:25:24;;;;;;;0.90;0.60;;;;;;;-143.84;51.95;45075.72;5089543;28;20471;-60
2023/10/03 03:27:54;;;;;;;0.80;0.40;;;;;;;-143.84;51.70;45062.41;5089558;28;20444;-60
2023/10/03 03:30:34;;;;;;;1.07;0.97;;;;;;;-143.84;51.70;45073.81;5090291;28;20860;-60
2023/10/03 03:33:06;;;;;;;1.07;0.97;;;;;;;-143.84;51.75;45106.19;5089638;28;20923;-59
2023/10/03 03:35:39;;;;;;;1.83;0.57;;;;;;;-143.84;51.96;45075.72;5089710;28;20450;-59
2023/10/03 03:38:15;;;;;;;1.30;1.17;;;;;;;-143.84;51.75;45071.91;5089472;28;20481;-59
2023/10/03 03:40:45;;;;;;;0.87;0.57;;;;;;;-143.84;51.79;45079.53;5089504;28;20441;-59
2023/10/03 03:43:14;;;;;;;0.80;0.40;;;;;;;-143.84;52.10;45075.72;5103213;28;20472;-59
2023/10/03 03:45:41;;;;;;;1.53;1.37;;;;;;;-143.84;52.01;45110.00;5106619;28;20430;-59
2023/10/03 03:48:09;;;;;;;1.00;0.70;;;;;;;-143.84;52.53;45060.50;5108816;28;20438;-59
2023/10/03 03:50:39;;;;;;;1.23;0.60;;;;;;;-143.84;52.07;45071.91;5109088;27;20535;-59
2023/10/03 03:53:06;;;;;;;1.50;1.03;;;;;;;-143.84;52.06;45070.00;5108809;28;20554;-60
2023/10/03 03:55:35;;;;;;;1.00;0.80;;;;;;;-143.84;52.31;45083.34;5108931;28;20513;-59
2023/10/03 03:58:05;;;;;;;4.10;0.80;;;;;;;-143.84;52.10;45094.78;5109042;28;20482;-59
2023/10/03 04:00:34;;;;;;;1.00;0.60;;;;;;;-143.84;52.41;45108.09;5109197;28;20433;-60
2023/10/03 04:03:05;;;;;;;5.50;0.83;;;;;;;-143.84;52.56;45087.16;5106288;28;20442;-59
2023/10/03 04:05:33;;;;;;;0.90;0.70;;;;;;;-143.84;52.53;45100.47;5109081;27;20449;-59
2023/10/03 04:08:03;;;;;;;1.17;0.77;;;;;;;-143.84;52.54;45075.72;5108822;28;20475;-59
2023/10/03 04:10:33;;;;;;;0.80;0.50;;;;;;;-143.84;52.34;45096.66;5109267;28;20521;-59
2023/10/03 04:13:00;;;;;;;0.83;0.60;;;;;;;-143.84;52.23;45071.91;5108961;28;20513;-59
2023/10/03 04:15:28;;;;;;;0.83;0.50;;;;;;;-143.84;52.38;45106.19;5108821;28;20454;-60
2023/10/03 04:17:55;;;;;;;1.00;0.67;;;;;;;-143.84;52.91;45071.91;5108671;28;20472;-59
2023/10/03 04:20:30;;;;;;;1.20;0.77;;;;;;;-143.84;52.57;45102.38;5105939;28;20437;-59
2023/10/03 04:22:58;;;;;;;0.80;0.60;;;;;;;-143.84;52.71;45085.25;5108513;28;20440;-59
2023/10/03 04:25:27;;;;;;;1.40;1.00;;;;;;;-143.84;52.64;45098.56;5109195;28;20809;-60
2023/10/03 04:27:56;;;;;;;0.90;0.70;;;;;;;-143.84;52.27;45085.25;5109094;28;20449;-59
2023/10/03 04:30:26;;;;;;;0.80;0.40;;;;;;;-143.84;52.57;45104.28;5108600;28;20446;-60
2023/10/03 04:32:57;;;;;;;0.90;0.60;;;;;;;-143.84;51.95;45058.59;5108561;28;20911;-59
2023/10/03 04:35:25;;;;;;;1.10;0.73;;;;;;;-143.84;51.79;45060.50;5108443;28;20445;-60
2023/10/03 04:37:55;;;;;;;1.37;0.80;;;;;;;-143.84;51.92;45083.34;5108440;28;20438;-60
2023/10/03 04:40:27;;;;;;;0.80;0.50;;;;;;;-143.84;52.38;45089.06;5108975;28;20445;-60
2023/10/03 04:42:57;;;;;;;0.80;0.53;;;;;;;-143.84;52.47;45094.78;5109061;28;20446;-60
2023/10/03 04:45:25;;;;;;;0.90;0.60;;;;;;;-143.84;52.41;45089.06;5109215;28;20510;-60
2023/10/03 04:47:53;;;;;;;1.03;0.93;;;;;;;-143.84;52.43;45155.69;5108863;28;20439;-60
2023/10/03 04:50:25;;;;;;;1.03;0.93;;;;;;;-143.84;52.23;45081.44;5108751;28;20437;-60
2023/10/03 04:52:53;;;;;;;1.50;0.60;;;;;;;-143.84;52.41;45087.16;5108837;28;20441;-60
2023/10/03 04:55:22;;;;;;;0.97;0.70;;;;;;;-143.84;53.14;45077.63;5108911;28;20445;-60
2023/10/03 04:57:51;;;;;;;0.80;0.40;;;;;;;-143.84;53.40;45075.72;5108755;28;20435;-60
2023/10/03 05:00:21;;;;;;;1.23;0.50;;;;;;;-143.84;53.07;45089.06;5108944;28;20476;-60
2023/10/03 05:02:50;;;;;;;0.80;0.53;;;;;;;-143.84;53.07;45108.09;5108802;28;20458;-60
2023/10/03 05:05:20;;;;;;;0.80;0.40;;;;;;;-143.84;52.84;45094.78;5108591;28;20938;-60
2023/10/03 05:07:48;;;;;;;0.90;0.57;;;;;;;-143.84;52.47;45071.91;5108919;28;20797;-60
2023/10/03 05:10:17;;;;;;;0.80;0.50;;;;;;;-143.84;51.90;45066.22;5108749;28;20839;-60
2023/10/03 05:12:45;;;;;;;0.90;0.63;;;;;;;-143.84;51.10;45089.06;5108924;28;20441;-60
2023/10/03 05:15:14;;;;;;;0.93;0.80;;;;;;;-143.84;50.02;45094.78;5108776;28;20429;-60
2023/10/03 05:17:43;;;;;;;1.00;0.90;;;;;;;-143.84;49.26;45104.28;5108930;28;20454;-60
2023/10/03 05:20:13;;;;;;;0.80;0.50;;;;;;;-143.84;48.35;45090.97;5108783;28;20481;-60
2023/10/03 05:22:40;;;;;;;0.90;0.70;;;;;;;-143.84;47.51;45041.44;5108415;28;20533;-60
2023/10/03 05:25:11;;;;;;;1.07;0.63;;;;;;;-143.84;47.37;45087.16;5108987;28;20458;-57
2023/10/03 05:27:39;;;;;;;1.47;0.63;;;;;;;-143.84;46.51;45081.44;5108057;28;20503;-57
2023/10/03 05:30:08;;;;;;;0.93;0.83;;;;;;;-143.84;46.20;45052.88;5108028;28;20447;-57
2023/10/03 05:32:36;;;;;;;1.33;1.00;;;;;;;-143.84;45.88;45043.34;5108223;28;21018;-57
2023/10/03 05:35:06;;;;;;;0.90;0.60;;;;;;;-143.84;45.68;45056.69;5109303;28;20435;-57
2023/10/03 05:37:34;;;;;;;0.80;0.50;;;;;;;-143.84;45.07;45075.72;5111936;28;20456;-57
2023/10/03 05:40:11;;;;;;;0.90;0.50;;;;;;;-143.84;44.48;45085.25;5111895;28;20490;-57
2023/10/03 05:42:40;;;;;;;0.80;0.40;;;;;;;-143.84;43.76;45045.25;5112180;28;21314;-57
2023/10/03 05:45:10;;;;;;;1.63;0.60;;;;;;;-143.84;43.15;45056.69;5112371;28;20864;-57
2023/10/03 05:47:37;;;;;;;0.90;0.70;;;;;;;-143.84;43.14;45049.06;5112208;28;20449;-57
2023/10/03 05:50:09;;;;;;;0.80;0.50;;;;;;;-143.84;43.05;45035.75;5111922;28;20445;-57
2023/10/03 05:52:36;;;;;;;1.20;0.87;;;;;;;-143.84;42.69;45037.66;5112130;28;20466;-57
2023/10/03 05:55:04;;;;;;;1.10;0.70;;;;;;;-143.84;42.15;45041.44;5112006;28;20431;-57
2023/10/03 05:57:32;;;;;;;1.27;1.17;;;;;;;-143.84;41.91;45031.94;5111992;28;20503;-57
2023/10/03 05:59:59;;;;;;;0.80;0.60;;;;;;;-143.84;41.30;45033.84;5112035;28;20478;-57
2023/10/03 06:02:27;;;;;;;1.00;0.80;;;;;;;-143.84;40.66;45045.25;5111698;28;20503;-57
2023/10/03 06:04:54;;;;;;;0.90;0.80;;;;;;;-143.84;40.27;45062.41;5111864;27;20439;-57
2023/10/03 06:07:23;;;;;;;1.93;1.13;;;;;;;-143.84;40.06;45030.03;5111742;28;20439;-57
2023/10/03 06:09:50;;;;;;;3.43;1.00;;;;;;;-143.84;40.04;45041.44;5112262;28;21290;-57
2023/10/03 06:12:18;;;;;;;1.20;0.80;;;;;;;-143.84;39.82;45037.66;5111818;28;20499;-57
2023/10/03 06:14:45;;;;;;;0.90;0.53;;;;;;;-143.84;39.68;45041.44;5111640;28;21348;-57
2023/10/03 06:17:13;;;;;;;0.90;0.50;;;;;;;-143.84;39.32;45037.66;5111730;28;20508;-57
2023/10/03 06:19:41;;;;;;;2.20;0.90;;;;;;;-143.84;38.78;45026.22;5111386;28;20540;-57
2023/10/03 06:22:08;;;;;;;1.43;0.80;;;;;;;-143.84;38.03;45045.25;5111436;28;20458;-57
2023/10/03 06:24:37;;;;;;;1.17;1.03;;;;;;;-143.84;37.92;44995.75;5111656;28;20447;-57
2023/10/03 06:27:07;;;;;;;0.90;0.80;;;;;;;-143.84;37.66;44995.75;5111602;28;20443;-57
2023/10/03 06:29:35;;;;;;;1.10;0.63;;;;;;;-143.84;37.46;45018.59;5111359;28;20443;-57
2023/10/03 06:32:02;;;;;;;1.10;0.50;;;;;;;-143.84;37.48;45003.38;5111192;27;20984;-57
2023/10/03 06:34:30;;;;;;;2.73;1.47;;;;;;;-143.84;36.38;45012.88;5111054;28;20539;-57
2023/10/03 06:36:57;;;;;;;4.10;0.90;;;;;;;-143.84;36.90;45026.22;5111791;28;20436;-57
2023/10/03 06:39:24;;;;;;;0.87;0.40;;;;;;;-143.84;36.19;45007.19;5111256;28;20567;-57
2023/10/03 06:41:55;;;;;;;1.30;0.70;;;;;;;-143.84;36.30;45003.38;5111011;28;20500;-57
2023/10/03 06:44:22;;;;;;;1.40;0.90;;;;;;;-143.84;36.43;44976.72;5111148;28;20530;-57
2023/10/03 06:46:49;;;;;;;2.33;1.10;;;;;;;-143.84;35.56;45022.41;5110858;28;20523;-57
2023/10/03 06:49:17;;;;;;;0.90;0.50;;;;;;;-143.84;34.94;45009.09;5110831;28;20488;-57
2023/10/03 06:51:44;;;;;;;0.97;0.77;;;;;;;-143.84;34.63;45003.38;5110837;28;20445;-57
2023/10/03 06:54:12;;;;;;;1.10;0.70;;;;;;;-143.84;34.17;44991.94;5110214;28;20500;-57
2023/10/03 06:56:41;;;;;;;1.10;0.67;;;;;;;-143.84;34.17;45007.19;5110358;28;20827;-57
2023/10/03 06:59:10;;;;;;;0.90;0.60;;;;;;;-143.84;34.00;45007.19;5110354;27;20559;-57
2023/10/03 07:01:38;;;;;;;0.90;0.53;;;;;;;-143.84;34.47;44993.84;5109902;28;20451;-57
2023/10/03 07:04:06;;;;;;;1.10;0.60;;;;;;;-143.84;33.49;44984.31;5110392;28;21116;-58
2023/10/03 07:06:34;;;;;;;1.00;0.70;;;;;;;-143.84;33.17;44982.41;5110087;28;20443;-57
2023/10/03 07:09:05;;;;;;;1.20;0.90;;;;;;;-143.84;33.43;44999.56;5110099;28;20956;-57
2023/10/03 07:11:32;;;;;;;1.50;0.80;;;;;;;-143.84;33.03;44999.56;5110285;28;20932;-58
2023/10/03 07:14:00;;;;;;;0.87;0.60;;;;;;;-143.84;33.11;44982.41;5110771;28;20474;-57
2023/10/03 07:16:36;;;;;;;1.00;0.70;;;;;;;-143.84;33.07;44980.53;5110294;28;20458;-57
2023/10/03 07:19:04;;;;;;;1.30;0.83;;;;;;;-143.84;31.63;44957.66;5110474;28;20478;-57
2023/10/03 07:21:31;;;;;;;1.37;0.77;;;;;;;-143.84;31.59;44995.75;5110219;28;20448;-57
2023/10/03 07:23:58;;;;;;;2.10;0.97;;;;;;;-143.84;31.66;44955.75;5110286;28;20537;-57
2023/10/03 07:26:27;;;;;;;2.27;1.07;;;;;;;-143.84;32.50;44982.41;5110228;28;20445;-57
2023/10/03 07:28:57;;;;;;;0.90;0.70;;;;;;;-143.84;31.18;44955.75;5110272;28;20522;-57
2023/10/03 07:31:24;;;;;;;1.20;0.80;;;;;;;-143.84;31.10;45003.38;5110128;28;21315;-58
2023/10/03 07:33:54;;;;;;;2.40;0.70;;;;;;;-143.84;30.18;44961.47;5110251;28;20435;-57
2023/10/03 07:36:22;;;;;;;0.90;0.50;;;;;;;-143.84;30.41;44969.09;5110052;28;20447;-58
2023/10/03 07:38:49;;;;;;;1.67;0.80;;;;;;;-143.84;31.34;44967.19;5110027;28;20515;-57
2023/10/03 07:41:17;;;;;;;0.90;0.70;;;;;;;-143.84;31.55;44988.13;5110018;28;20496;-57
2023/10/03 07:43:47;;;;;;;7.20;0.83;;;;;;;-143.84;31.07;44971.00;5109982;28;20447;-57
2023/10/03 07:46:20;;;;;;;0.80;0.47;;;;;;;-143.84;31.01;44984.31;5109983;28;20439;-58
2023/10/03 07:48:48;;;;;;;3.13;0.60;;;;;;;-143.84;30.98;44991.94;5110013;28;20479;-57
2023/10/03 07:51:20;;;;;;;1.43;0.70;;;;;;;-143.84;30.41;44959.56;5109917;28;20839;-58
2023/10/03 07:53:51;;;;;;;0.90;0.60;;;;;;;-143.84;30.27;44984.31;5109844;28;20447;-57
2023/10/03 07:56:24;;;;;;;2.37;0.80;;;;;;;-143.84;30.70;44946.25;5109694;28;21025;-57
2023/10/03 07:58:53;;;;;;;0.90;0.50;;;;;;;-143.84;29.21;44955.75;5108957;28;20945;-58
2023/10/03 08:01:21;;;;;;;0.90;0.60;;;;;;;-143.84;29.17;44990.03;5109422;28;20538;-57
2023/10/03 08:03:49;;;;;;;1.57;0.53;;;;;;;-143.84;28.93;44955.75;5110003;28;20439;-57
2023/10/03 08:06:19;;;;;;;0.90;0.47;;;;;;;-143.84;29.70;44971.00;5109680;27;20504;-57
2023/10/03 08:08:48;;;;;;;1.07;0.67;;;;;;;-143.84;29.67;44963.38;5109434;28;20450;-57
2023/10/03 08:11:15;;;;;;;1.50;1.10;;;;;;;-143.84;29.78;44948.16;5109136;28;20898;-58
2023/10/03 08:13:42;;;;;;;0.80;0.40;;;;;;;-143.84;29.75;44980.53;5108963;28;20442;-57
2023/10/03 08:16:13;;;;;;;1.67;0.50;;;;;;;-143.84;29.38;44955.75;5108940;28;20835;-57
2023/10/03 08:18:46;;;;;;;2.03;0.90;;;;;;;-143.84;28.99;44948.16;5102836;28;20811;-57
2023/10/03 08:21:13;;;;;;;1.20;0.83;;;;;;;-143.84;28.78;44946.25;5089077;28;20483;-63
2023/10/03 08:23:40;;;;;;;1.80;1.57;;;;;;;-143.84;29.41;44976.72;5088464;28;20449;-64
2023/10/03 08:26:09;;;;;;;0.90;0.47;;;;;;;-143.84;29.10;44927.19;5088556;28;20479;-63
2023/10/03 08:28:38;;;;;;;1.43;0.70;;;;;;;-143.84;29.70;44953.88;5088637;28;20544;-63
2023/10/03 08:31:07;;;;;;;1.37;0.80;;;;;;;-143.84;29.19;44976.72;5088819;28;20537;-63
2023/10/03 08:33:36;;;;;;;1.30;1.00;;;;;;;-143.84;29.64;44942.44;5088594;28;20480;-62
2023/10/03 08:36:14;;;;;;;1.07;0.90;;;;;;;-143.84;30.05;44955.75;5088775;28;20446;-63
2023/10/03 08:38:43;;;;;;;1.10;0.50;;;;;;;-143.84;28.76;44961.47;5088812;28;20810;-63
2023/10/03 08:41:18;;;;;;;0.90;0.70;;;;;;;-143.84;29.62;44967.19;5088692;28;20490;-62
2023/10/03 08:43:54;;;;;;;2.50;0.67;;;;;;;-143.84;28.87;44927.19;5088729;28;20459;-62
2023/10/03 08:46:25;;;;;;;1.33;0.70;;;;;;;-143.84;28.74;44932.91;5088668;28;20439;-62
2023/10/03 08:49:00;;;;;;;0.90;0.50;;;;;;;-143.84;28.86;44927.19;5088840;28;20476;-62
2023/10/03 08:51:32;;;;;;;1.07;0.80;;;;;;;-143.84;29.02;44925.31;5088564;28;20496;-62
2023/10/03 08:54:08;;;;;;;1.20;0.90;;;;;;;-143.84;29.04;44955.75;5089030;28;21317;-62
2023/10/03 08:56:40;;;;;;;2.43;0.70;;;;;;;-143.84;28.64;44940.53;5088530;28;20475;-62
2023/10/03 08:59:08;;;;;;;1.17;0.80;;;;;;;-143.84;29.36;44951.97;5088245;28;20444;-62
2023/10/03 09:01:39;;;;;;;0.90;0.73;;;;;;;-143.84;29.21;44931.00;5088608;28;21298;-62
2023/10/03 09:04:15;;;;;;;0.90;0.50;;;;;;;-143.84;29.44;44934.81;5088635;28;20436;-63
2023/10/03 09:06:43;;;;;;;1.23;0.60;;;;;;;-143.84;29.38;44938.63;5088642;28;20525;-63
2023/10/03 09:09:13;;;;;;;0.90;0.80;;;;;;;-143.84;29.30;44921.50;5090020;28;20493;-63
2023/10/03 09:11:43;;;;;;;1.33;1.00;;;;;;;-143.84;29.42;44923.41;5092922;28;20921;-63
2023/10/03 09:14:14;;;;;;;1.10;1.00;;;;;;;-143.84;29.81;44950.06;5092228;28;20439;-63
2023/10/03 09:16:41;;;;;;;0.90;0.70;;;;;;;-143.84;29.27;44921.50;5092376;28;20443;-63
2023/10/03 09:19:10;;;;;;;1.47;0.70;;;;;;;-143.84;29.63;44917.69;5092267;28;20448;-63
2023/10/03 09:21:37;;;;;;;1.03;0.80;;;;;;;-143.84;29.95;44944.34;5092587;28;20446;-63
2023/10/03 09:24:15;;;;;;;1.93;0.73;;;;;;;-143.84;30.28;44948.16;5092293;28;20443;-62
2023/10/03 09:26:51;;;;;;;2.17;1.63;;;;;;;-143.84;30.01;44932.91;5092063;28;21006;-62
2023/10/03 09:29:29;;;;;;;1.17;1.07;;;;;;;-143.84;29.75;44957.66;5092359;28;20439;-63
2023/10/03 09:31:57;;;;;;;1.53;0.67;;;;;;;-143.84;29.63;44967.19;5091920;28;20486;-62
2023/10/03 09:34:30;;;;;;;0.83;0.57;;;;;;;-143.84;29.70;44972.91;5092113;28;20493;-62
2023/10/03 09:37:02;;;;;;;0.80;0.40;;;;;;;-143.84;29.86;44955.75;5092158;28;20440;-62
2023/10/03 09:39:30;;;;;;;0.90;0.50;;;;;;;-143.84;30.55;44953.88;5092141;28;20463;-62
2023/10/03 09:42:03;;;;;;;1.73;0.90;;;;;;;-143.84;30.00;44959.56;5092002;28;20534;-62
2023/10/03 09:44:32;;;;;;;1.83;0.90;;;;;;;-143.84;30.15;44934.81;5092077;28;20447;-63
2023/10/03 09:47:04;;;;;;;1.10;0.60;;;;;;;-143.84;29.61;44940.53;5092054;28;20444;-63
2023/10/03 09:49:36;;;;;;;0.90;0.50;;;;;;;-143.84;29.70;44963.38;5091847;28;20442;-63
2023/10/03 09:52:17;;;;;;;1.37;0.83;;;;;;;-143.84;30.18;44938.63;5091586;28;20906;-63
2023/10/03 09:54:45;;;;;;;1.10;1.00;;;;;;;-143.84;30.25;44957.66;5091551;28;20493;-63
2023/10/03 09:57:17;;;;;;;1.17;0.70;;;;;;;-143.84;30.33;44932.91;5091391;28;20443;-63
2023/10/03 09:59:46;;;;;;;3.00;1.17;;;;;;;-143.84;29.97;44923.41;5091664;28;20476;-63
2023/10/03 10:02:16;;;;;;;1.33;0.70;;;;;;;-143.84;29.91;44948.16;5091851;28;20968;-63
2023/10/03 10:04:46;;;;;;;1.50;0.80;;;;;;;-143.84;29.58;44969.09;5091572;28;20428;-62
2023/10/03 10:07:29;;;;;;;2.03;1.10;;;;;;;-143.84;30.85;44951.97;5091292;28;20436;-62
2023/10/03 10:10:07;;;;;;;1.40;1.30;;;;;;;-143.84;29.48;44955.75;5091329;28;21333;-62
2023/10/03 10:12:42;;;;;;;1.60;0.90;;;;;;;-143.84;29.94;44951.97;5091316;28;21152;-62
2023/10/03 10:15:21;;;;;;;0.87;0.53;;;;;;;-143.84;30.44;44948.16;5091211;28;20444;-62
2023/10/03 10:17:54;;;;;;;1.20;0.80;;;;;;;-143.84;30.33;44950.06;5091188;28;20439;-62
2023/10/03 10:20:27;;;;;;;1.50;0.70;;;;;;;-143.84;30.51;44953.88;5090577;28;20486;-62
2023/10/03 10:23:20;;;;;;;0.80;0.43;;;;;;;-143.84;30.81;44959.56;5091312;28;20452;-62
2023/10/03 10:25:51;;;;;;;1.30;0.70;;;;;;;-143.84;29.78;44957.66;5090873;28;20478;-62
2023/10/03 10:28:30;;;;;;;1.30;0.87;;;;;;;-143.84;30.29;44953.88;5090839;28;20964;-62
2023/10/03 10:31:21;;;;;;;1.20;0.83;;;;;;;-143.84;30.38;44906.25;5090904;28;20491;-62
2023/10/03 10:33:51;;;;;;;0.90;0.63;;;;;;;-143.84;30.70;44944.34;5091015;28;20444;-62
2023/10/03 10:36:20;;;;;;;2.43;1.90;;;;;;;-143.84;29.82;44963.38;5090643;28;20467;-62
2023/10/03 10:38:53;;;;;;;1.10;0.80;;;;;;;-143.84;30.38;44957.66;5090577;28;20468;-62
2023/10/03 10:41:30;;;;;;;1.30;0.97;;;;;;;-143.84;31.23;44936.72;5090514;28;20487;-63
2023/10/03 10:44:08;;;;;;;0.97;0.43;;;;;;;-143.84;31.74;44944.34;5090726;28;20964;-62
2023/10/03 10:46:38;;;;;;;1.43;0.80;;;;;;;-143.84;30.20;44972.91;5090496;28;20459;-62
2023/10/03 10:49:10;;;;;;;3.47;1.17;;;;;;;-143.84;31.32;44934.81;5090482;28;20440;-62
2023/10/03 10:51:37;;;;;;;1.00;0.67;;;;;;;-143.84;30.47;44969.09;5090825;28;21057;-62
2023/10/03 10:54:05;;;;;;;1.80;1.27;;;;;;;-143.84;30.27;44944.34;5090305;28;20482;-62
2023/10/03 10:56:33;;;;;;;1.50;1.00;;;;;;;-143.84;30.63;44944.34;5090379;28;20506;-62
2023/10/03 10:59:04;;;;;;;1.30;1.00;;;;;;;-143.84;30.66;44972.91;5090201;28;20475;-62
2023/10/03 11:01:39;;;;;;;1.17;0.90;;;;;;;-143.84;30.64;44915.78;5090190;28;20559;-62
2023/10/03 11:04:07;;;;;;;1.20;0.80;;;;;;;-143.84;31.65;44971.00;5090325;28;20450;-62
2023/10/03 11:06:34;;;;;;;1.10;0.80;;;;;;;-143.84;31.48;44951.97;5090045;28;20435;-62
2023/10/03 11:09:01;;;;;;;1.17;0.67;;;;;;;-143.84;31.37;44934.81;5089887;28;21084;-62
2023/10/03 11:11:38;;;;;;;1.73;1.00;;;;;;;-143.84;31.09;44927.19;5089913;28;20439;-62
2023/10/03 11:14:05;;;;;;;0.97;0.50;;;;;;;-143.84;31.10;44990.03;5089897;28;20471;-62
2023/10/03 11:16:34;;;;;;;1.50;1.27;;;;;;;-143.84;30.81;44957.66;5089903;28;20464;-62
2023/10/03 11:19:02;;;;;;;1.10;0.70;;;;;;;-143.84;30.59;44971.00;5089717;28;20444;-62
2023/10/03 11:21:30;;;;;;;1.30;1.03;;;;;;;-143.84;30.79;44965.28;5089803;28;21046;-62
2023/10/03 11:24:18;;;;;;;0.90;0.50;;;;;;;-143.84;30.92;44967.19;5089982;28;21018;-62
2023/10/03 11:26:50;;;;;;;1.40;0.67;;;;;;;-143.84;31.21;44976.72;5090159;28;20448;-62
2023/10/03 11:29:35;;;;;;;0.80;0.50;;;;;;;-143.84;31.86;44934.81;5089720;28;20529;-62